Wednesday, May 27, 2015, 9:38 PM EDT

KESN, Easton / Newman Field

Location: Easton, MD, United States Lat: 38.8
Local Time: 9:38 PM EDT ( 1:38 GMT) Lon: -76.067
Time Zone: US/Eastern Elev: 72 ft

Show me the last for .
Show Decoded

2015-05-27 20:50 METAR KESN 280050Z 19006KT 10SM SCT049 24/24 A3018 =
2015-05-27 19:20 METAR KESN 272320Z 20011G17KT 3SM TSRA SCT048 SCT070 27/22 A3017 RMK TS W MOV E
                 TSB2320 LTGCCCG =
2015-05-27 17:50 METAR KESN 272150Z 20015G20KT 10SM SCT120 30/22 A3015 =
2015-05-27 15:50 METAR KESN 271950Z 21012G16KT 10SM SCT036 30/22 A3016 =
2015-05-27 14:50 METAR KESN 271850Z 21012G16KT 10SM SCT029 30/22 A3017 =
2015-05-27 13:50 METAR KESN 271750Z 21012G16KT 10SM SCT055 30/22 A3018 =
2015-05-27 12:50 METAR KESN 271650Z COR 23010G17KT 10SM SCT020 29/22 A3021 =
2015-05-27 10:50 METAR KESN 271450Z 20009G14KT 10SM BKN018 27/22 A3022 =
2015-05-27 09:50 METAR KESN 271350Z 21009KT 10SM BKN014 26/22 A3023 =
2015-05-27 08:50 METAR KESN 271250Z 21010KT 10SM OVC012 24/22 A3024 =
2015-05-27 07:50 METAR KESN 271150Z 21010KT 10SM BKN012 24/24 A3023 =
2015-05-27 06:50 METAR KESN 271050Z 17006KT 10SM FEW030 SCT250 22/22 A3022 =
2015-05-27 05:55 METAR KESN 270955Z 17006KT 10SM BKN250 22/22 A3021 =
2015-05-27 05:53 METAR KESN 270953Z AUTO 19005KT 10SM CLR 22/22 A3021 =
2015-05-27 05:52 METAR KESN 270952Z AUTO 19006KT 10SM CLR 22/22 A3021 RMK AO2 T02220222 =
2015-05-27 05:31 METAR KESN 270932Z AUTO 20006KT 10SM CLR 23/23 A3021 =
2015-05-27 05:21 METAR KESN 270932Z AUTO 20006KT 10SM CLR 23/23 A3021 RMK AO2 T02250225 =
2015-05-27 05:10 METAR KESN 270912Z AUTO 20006KT 10SM CLR 23/23 A3021 =
2015-05-27 05:09 METAR KESN 270912Z AUTO 20006KT 10SM CLR 23/23 A3021 RMK AO2 T02250225 =
2015-05-27 04:52 METAR KESN 270852Z AUTO 21007KT 10SM CLR 23/23 A3020 RMK AO2 T02260225 =
2015-05-27 04:26 METAR KESN 270832Z AUTO 21008KT 10SM CLR 23/22 A3020 =
2015-05-27 04:21 METAR KESN 270832Z AUTO 21008KT 10SM CLR 23/22 A3020 RMK AO2 T02270221 =
2015-05-27 04:12 METAR KESN 270812Z AUTO 22010KT 10SM CLR 23/22 A3020 RMK AO2 T02280215 =
2015-05-27 04:11 METAR KESN 270812Z AUTO 22010KT 10SM CLR 23/22 A3020 =
2015-05-27 03:52 METAR KESN 270752Z AUTO 22009KT 10SM CLR 23/21 A3020 =
2015-05-27 03:23 METAR KESN 270732Z AUTO 22011G14KT 10SM CLR 23/21 A3021 =
2015-05-27 03:19 METAR KESN 270732Z AUTO 22011G14KT 10SM CLR 23/21 A3021 RMK AO2 T02300213 =
2015-05-27 03:11 METAR KESN 270712Z AUTO 21010KT 10SM CLR 23/21 A3021 =
2015-05-27 03:06 METAR KESN 270712Z AUTO 21010KT 10SM CLR 23/21 A3021 RMK AO2 T02310212 =
2015-05-27 02:52 METAR KESN 270652Z AUTO 21010KT 10SM CLR 23/21 A3021 RMK AO2 T02320212 =
2015-05-27 02:24 METAR KESN 270632Z AUTO 21010KT 10SM CLR 23/21 A3021 =
2015-05-27 02:23 METAR KESN 270632Z AUTO 21010KT 10SM CLR 23/21 A3021 RMK AO2 T02330212 =
2015-05-27 02:10 METAR KESN 270612Z AUTO 21009KT 10SM CLR 23/21 A3021 =
2015-05-27 02:09 METAR KESN 270612Z AUTO 21009KT 10SM CLR 23/21 A3021 RMK AO2 T02330212 =
2015-05-27 01:52 METAR KESN 270552Z AUTO 22009KT 10SM CLR 24/21 A3021 RMK AO2 T02350212 =
2015-05-27 01:22 METAR KESN 270532Z AUTO 21009KT 10SM CLR 24/21 A3021 =
2015-05-27 01:21 METAR KESN 270532Z AUTO 21009KT 10SM CLR 24/21 A3021 RMK AO2 T02350213 =
2015-05-27 01:11 METAR KESN 270512Z AUTO 19008KT 10SM CLR 23/21 A3021 =
2015-05-27 01:09 METAR KESN 270512Z AUTO 19008KT 10SM CLR 23/21 A3021 RMK AO2 T02320212 =
2015-05-27 00:52 METAR KESN 270452Z AUTO 20008KT 10SM CLR 23/21 A3022 RMK AO2 T02320211 =
2015-05-27 00:32 METAR KESN 270432Z AUTO 20007KT 10SM CLR 23/21 A3022 RMK AO2 T02320210 =
2015-05-27 00:12 METAR KESN 270412Z AUTO 19010KT 10SM SCT047 23/21 A3022 =
2015-05-26 23:52 METAR KESN 270352Z AUTO 20009G15KT 10SM BKN045 24/21 A3023 RMK AO2 T02350209 =
2015-05-26 23:30 METAR KESN 270332Z AUTO 20010KT 10SM CLR 23/21 A3023 =
2015-05-26 23:22 METAR KESN 270332Z AUTO 20010KT 10SM CLR 23/21 A3023 RMK AO2 T02340207 =
2015-05-26 23:09 METAR KESN 270312Z AUTO 19009KT 10SM SCT045 24/21 A3023 =
2015-05-26 23:08 METAR KESN 270312Z AUTO 19009KT 10SM SCT045 24/21 A3023 RMK AO2 T02360206 =
2015-05-26 22:52 METAR KESN 270252Z AUTO 19011G16KT 10SM SCT045 24/21 A3023 RMK AO2 T02400205 =
2015-05-26 22:26 METAR KESN 270231Z AUTO 19008KT 10SM CLR 24/20 A3023 =
2015-05-26 22:22 METAR KESN 270231Z AUTO 19008KT 10SM CLR 24/20 A3023 RMK AO2 T02400202 =
2015-05-26 22:11 METAR KESN 270211Z AUTO 19011G15KT 10SM SCT047 SCT120 24/20 A3022 =
2015-05-26 22:06 METAR KESN 270211Z AUTO 19011G15KT 10SM SCT047 SCT120 24/20 A3022 RMK AO2
                 T02430200 =

Support USWX by starting your Amazon purchase here.